Time;durP1;ratioP1;P1;durP2;ratioP2;P2;SDS_P1;SDS_P2;PMS_P1;PMS_P2;Temp;Humidity;BMP_temperature;BMP_pressure;BME280_temperature;BME280_humidity;BME280_pressure;Samples;Min_cycle;Max_cycle;Signal;HPM_P1;HPM_P2
2023/09/08 00:01:13;;;;;;;14.73;10.13;;;;;;;-141.97;70.90;47522.91;5020646;28;20705;-82
2023/09/08 00:03:38;;;;;;;15.37;9.87;;;;;;;-141.97;71.30;47624.78;5032427;28;20154;-83
2023/09/08 00:06:04;;;;;;;11.83;9.23;;;;;;;-141.97;71.40;47582.50;5032784;28;20622;-84
2023/09/08 00:08:29;;;;;;;17.10;10.03;;;;;;;-141.97;71.43;47588.28;5035531;28;20169;-82
2023/09/08 00:10:55;;;;;;;16.43;10.60;;;;;;;-141.97;71.92;47567.13;5042407;28;20205;-83
2023/09/08 00:13:20;;;;;;;15.23;10.43;;;;;;;-141.97;72.30;47767.03;5058705;28;20269;-84
2023/09/08 00:15:46;;;;;;;15.43;10.77;;;;;;;-141.97;72.57;47609.41;5031891;28;20169;-83
2023/09/08 00:18:11;;;;;;;14.87;10.10;;;;;;;-141.97;72.87;47488.31;5031896;28;20291;-83
2023/09/08 00:20:37;;;;;;;17.87;10.63;;;;;;;-141.97;73.10;47463.34;5031828;28;20272;-84
2023/09/08 00:23:03;;;;;;;16.27;10.67;;;;;;;-141.97;73.54;47645.94;5031720;28;20697;-83
2023/09/08 00:25:29;;;;;;;17.13;10.37;;;;;;;-141.97;73.79;47582.50;5047226;28;20211;-84
2023/09/08 00:27:54;;;;;;;15.53;10.20;;;;;;;-141.97;73.38;47597.88;5032298;28;20249;-85
2023/09/08 00:30:20;;;;;;;16.17;10.30;;;;;;;-141.97;73.70;47588.28;5031806;28;20169;-83
2023/09/08 00:32:45;;;;;;;14.83;10.53;;;;;;;-141.97;73.56;47605.56;5031244;28;20694;-82
2023/09/08 00:35:13;;;;;;;16.93;10.23;;;;;;;-141.97;73.59;47594.03;5031330;28;20587;-82
2023/09/08 00:37:39;;;;;;;15.43;10.23;;;;;;;-141.97;73.59;47595.97;5031396;28;20170;-82
2023/09/08 00:40:06;;;;;;;14.93;10.50;;;;;;;-141.97;73.53;47638.25;5031248;28;20194;-82
2023/09/08 00:42:32;;;;;;;14.17;10.37;;;;;;;-141.97;73.25;47630.56;5030662;28;20237;-82
2023/09/08 00:44:57;;;;;;;14.77;10.20;;;;;;;-141.97;73.13;47540.22;5031113;28;20162;-82
2023/09/08 00:47:22;;;;;;;14.10;10.00;;;;;;;-141.97;73.28;47592.13;5031353;28;20524;-81
2023/09/08 00:49:49;;;;;;;14.00;10.47;;;;;;;-141.97;73.74;47638.25;5031314;28;20162;-82
2023/09/08 00:52:14;;;;;;;14.77;10.30;;;;;;;-141.97;73.97;47620.94;5030972;28;20170;-81
2023/09/08 00:54:40;;;;;;;14.27;10.17;;;;;;;-141.97;73.84;47624.78;5030973;28;20197;-81
2023/09/08 00:57:06;;;;;;;15.97;10.57;;;;;;;-141.97;74.26;47605.56;5031083;28;20167;-81
2023/09/08 00:59:33;;;;;;;16.43;10.87;;;;;;;-141.97;74.75;47594.03;5030961;28;20687;-82
2023/09/08 01:01:59;;;;;;;15.10;11.13;;;;;;;-141.97;75.33;47617.09;5019822;28;20259;-81
2023/09/08 01:04:24;;;;;;;14.50;11.60;;;;;;;-141.97;75.02;47628.63;5031186;28;20180;-81
2023/09/08 01:06:50;;;;;;;18.23;10.97;;;;;;;-141.97;75.30;47603.66;5031068;28;20571;-82
2023/09/08 01:09:16;;;;;;;21.67;11.53;;;;;;;-141.97;75.38;47605.56;5030943;28;20845;-82
2023/09/08 01:11:41;;;;;;;14.40;10.50;;;;;;;-141.97;75.06;47607.50;5030656;28;20220;-81
2023/09/08 01:14:07;;;;;;;16.70;10.47;;;;;;;-141.97;75.59;47599.81;5030756;28;20244;-82
2023/09/08 01:16:33;;;;;;;19.00;10.73;;;;;;;-141.97;75.98;47599.81;5031028;28;20166;-81
2023/09/08 01:18:59;;;;;;;17.33;10.50;;;;;;;-141.97;76.22;47603.66;5046165;28;20225;-82
2023/09/08 01:21:57;;;;;;;19.57;11.10;;;;;;;-141.97;76.31;47615.19;5030702;28;20640;-83
2023/09/08 01:24:28;;;;;;;18.67;10.77;;;;;;;-141.97;76.48;47647.84;4951939;28;20584;-83
2023/09/08 01:26:54;;;;;;;18.07;11.83;;;;;;;-141.97;76.37;47644.00;4951523;29;20215;-84
2023/09/08 01:29:19;;;;;;;17.10;11.37;;;;;;;-141.97;76.80;47651.69;4951136;29;20288;-85
2023/09/08 01:31:45;;;;;;;16.60;10.63;;;;;;;-141.97;76.64;47811.25;4955271;28;20206;-84
2023/09/08 01:34:12;;;;;;;15.70;10.70;;;;;;;-141.97;76.63;47584.44;4970009;28;20206;-84
2023/09/08 01:36:37;;;;;;;16.07;10.80;;;;;;;-141.97;76.60;47822.78;4952629;28;20206;-85
2023/09/08 01:39:03;;;;;;;16.20;10.93;;;;;;;-141.97;76.55;47649.78;4975731;28;20176;-85
2023/09/08 01:41:30;;;;;;;13.13;10.93;;;;;;;-141.97;76.89;47636.31;4992396;28;20234;-84
2023/09/08 01:43:55;;;;;;;17.60;11.07;;;;;;;-141.97;76.64;47496.00;4976810;28;20314;-85
2023/09/08 01:46:20;;;;;;;18.07;11.17;;;;;;;-141.97;76.68;47797.78;4974312;28;20172;-86
2023/09/08 01:48:46;;;;;;;19.30;12.00;;;;;;;-141.97;77.30;47599.81;4972087;28;20192;-86
2023/09/08 01:51:11;;;;;;;21.77;11.30;;;;;;;-141.97;77.37;47842.00;4969476;28;20609;-86
2023/09/08 01:53:37;;;;;;;15.40;11.40;;;;;;;-141.97;77.73;47572.91;4965726;28;20318;-86
2023/09/08 01:56:02;;;;;;;17.47;11.50;;;;;;;-141.97;77.58;47513.31;4950679;29;20173;-86
2023/09/08 01:58:28;;;;;;;21.67;11.57;;;;;;;-141.97;78.06;47611.34;4967290;28;20188;-86
2023/09/08 02:00:53;;;;;;;16.20;10.53;;;;;;;-141.97;78.82;47703.59;4974405;28;20285;-85
2023/09/08 02:03:19;;;;;;;15.37;10.83;;;;;;;-141.97;79.87;47649.78;5026238;28;20266;-85
2023/09/08 02:05:45;;;;;;;17.20;10.83;;;;;;;-141.97;80.39;47584.44;5009909;28;20641;-85
2023/09/08 02:08:10;;;;;;;17.90;11.23;;;;;;;-141.97;80.23;47499.84;5024776;28;20196;-86
2023/09/08 02:10:35;;;;;;;16.00;10.73;;;;;;;-141.97;80.50;47355.72;5028940;28;20162;-83
2023/09/08 02:13:01;;;;;;;19.10;11.70;;;;;;;-141.97;80.66;47649.78;5030137;28;20166;-83
2023/09/08 02:15:26;;;;;;;16.23;11.13;;;;;;;-141.97;81.52;47584.44;5030111;28;20177;-82
2023/09/08 02:17:56;;;;;;;17.17;11.40;;;;;;;-141.97;81.78;47799.72;5029789;28;20264;-82
2023/09/08 02:20:21;;;;;;;18.00;11.90;;;;;;;-141.97;81.84;47619.03;5029741;28;20571;-84
2023/09/08 02:22:50;;;;;;;18.47;11.53;;;;;;;-141.97;82.76;47492.16;5029984;28;20166;-83
2023/09/08 02:25:15;;;;;;;16.70;11.63;;;;;;;-141.97;83.31;47799.72;5030286;28;20499;-84
2023/09/08 02:27:40;;;;;;;19.03;11.93;;;;;;;-141.97;84.04;47394.16;5029920;28;20180;-84
2023/09/08 02:30:06;;;;;;;24.50;13.23;;;;;;;-141.97;84.30;47588.28;5030070;28;20162;-83
2023/09/08 02:32:32;;;;;;;18.60;12.73;;;;;;;-141.97;84.46;47669.00;5030125;28;20185;-84
2023/09/08 02:34:57;;;;;;;22.63;12.83;;;;;;;-141.97;84.95;47776.63;5030512;28;20167;-84
2023/09/08 02:37:22;;;;;;;20.33;12.77;;;;;;;-141.97;84.96;47670.91;5032867;28;20170;-84
2023/09/08 02:39:48;;;;;;;21.23;12.63;;;;;;;-141.97;86.08;47834.31;5033694;28;20281;-84
2023/09/08 02:42:13;;;;;;;25.17;13.83;;;;;;;-141.97;87.07;47669.00;5033668;28;20233;-84
2023/09/08 02:44:39;;;;;;;19.30;13.30;;;;;;;-141.97;86.80;47661.31;5035070;28;20249;-85
2023/09/08 02:47:06;;;;;;;19.93;13.43;;;;;;;-141.97;86.89;47699.75;5032168;28;20277;-85
2023/09/08 02:49:31;;;;;;;23.50;13.97;;;;;;;-141.97;87.87;47398.00;5032668;28;20189;-85
2023/09/08 02:51:57;;;;;;;22.83;14.40;;;;;;;-141.97;89.47;47711.28;5027076;28;20265;-85
2023/09/08 02:54:22;;;;;;;22.53;14.60;;;;;;;-141.97;90.28;47653.63;5024316;28;20190;-84
2023/09/08 02:56:47;;;;;;;23.53;14.70;;;;;;;-141.97;90.25;47392.22;5032762;28;20173;-87
2023/09/08 02:59:13;;;;;;;20.30;14.20;;;;;;;-141.97;89.78;47630.56;5031915;28;20193;-84
2023/09/08 03:01:38;;;;;;;21.77;14.40;;;;;;;-141.97;89.48;47644.00;5023408;28;20312;-83
2023/09/08 03:04:04;;;;;;;21.60;14.43;;;;;;;-141.97;89.04;47547.91;5033148;28;20163;-85
2023/09/08 03:06:29;;;;;;;23.10;14.87;;;;;;;-141.97;89.23;47451.81;5031955;28;20166;-85
2023/09/08 03:08:54;;;;;;;20.80;14.93;;;;;;;-141.97;90.65;47474.88;5032904;28;20182;-85
2023/09/08 03:11:20;;;;;;;25.67;15.20;;;;;;;-141.97;89.94;47661.31;5031676;28;20193;-84
2023/09/08 03:13:45;;;;;;;26.67;15.23;;;;;;;-141.97;89.82;47645.94;5031772;28;20217;-86
2023/09/08 03:16:11;;;;;;;22.93;15.13;;;;;;;-141.97;89.85;47392.22;5031672;28;20177;-85
2023/09/08 03:18:36;;;;;;;22.77;14.73;;;;;;;-141.97;89.27;47653.63;5032823;28;20231;-82
2023/09/08 03:21:08;;;;;;;23.10;15.37;;;;;;;-141.97;88.74;47659.38;5031479;28;20718;-84
2023/09/08 03:23:38;;;;;;;22.40;15.50;;;;;;;-141.97;89.50;47595.97;5033305;28;20158;-83
2023/09/08 03:26:04;;;;;;;20.63;15.37;;;;;;;-141.97;89.79;47611.34;5033120;28;20724;-82
2023/09/08 03:28:30;;;;;;;22.83;15.67;;;;;;;-141.97;90.02;47669.00;5032331;28;20189;-82
2023/09/08 03:30:55;;;;;;;24.40;15.07;;;;;;;-141.97;89.65;47653.63;5032885;28;20169;-83
2023/09/08 03:33:21;;;;;;;26.20;15.50;;;;;;;-141.97;89.46;47651.69;5032361;28;20162;-83
2023/09/08 03:35:46;;;;;;;23.97;15.87;;;;;;;-141.97;88.38;47647.84;5032632;28;20586;-82
2023/09/08 03:38:12;;;;;;;21.40;15.70;;;;;;;-141.97;87.02;47655.53;5032158;28;20257;-82
2023/09/08 03:40:37;;;;;;;26.83;16.83;;;;;;;-141.97;86.51;47576.75;5032288;28;20228;-82
2023/09/08 03:43:03;;;;;;;29.63;16.20;;;;;;;-141.97;85.92;47680.53;5032653;28;20232;-82
2023/09/08 03:45:29;;;;;;;24.37;15.97;;;;;;;-141.97;86.20;47703.59;5032458;28;20173;-82
2023/09/08 03:47:54;;;;;;;22.50;15.27;;;;;;;-141.97;85.57;47663.22;5031381;28;20521;-83
2023/09/08 03:50:20;;;;;;;24.43;15.23;;;;;;;-141.97;85.39;47634.41;5034040;28;20193;-81
2023/09/08 03:52:45;;;;;;;20.10;14.90;;;;;;;-141.97;84.94;47622.88;5033676;28;20170;-81
2023/09/08 03:55:11;;;;;;;24.07;15.70;;;;;;;-141.97;85.20;47626.72;5038495;28;20174;-81
2023/09/08 03:57:36;;;;;;;23.60;16.03;;;;;;;-141.97;84.52;47607.50;5040039;28;20177;-81
2023/09/08 04:00:04;;;;;;;24.60;16.53;;;;;;;-141.97;84.29;47638.25;5036909;28;20307;-82
2023/09/08 04:02:30;;;;;;;25.93;15.97;;;;;;;-141.97;84.25;47670.91;5022767;28;20238;-81
2023/09/08 04:04:55;;;;;;;26.83;16.67;;;;;;;-141.97;84.09;47538.28;5032277;28;20198;-86
2023/09/08 04:07:20;;;;;;;28.87;17.13;;;;;;;-141.97;83.80;47649.78;5031896;28;20178;-87
2023/09/08 04:09:46;;;;;;;24.90;16.53;;;;;;;-141.97;83.56;47826.63;5032167;28;20162;-85
2023/09/08 04:12:11;;;;;;;26.07;17.27;;;;;;;-141.97;84.13;47501.78;5046853;28;20606;-87
2023/09/08 04:14:37;;;;;;;27.93;18.57;;;;;;;-141.97;83.86;47619.03;5031578;28;20485;-87
2023/09/08 04:17:02;;;;;;;29.97;17.37;;;;;;;-141.97;83.76;47594.03;5031677;28;20166;-86
2023/09/08 04:19:28;;;;;;;29.57;17.87;;;;;;;-141.97;83.70;47619.03;5031739;28;20170;-86
2023/09/08 04:21:53;;;;;;;30.43;17.73;;;;;;;-141.97;83.82;47626.72;5030289;28;20184;-86
2023/09/08 04:24:19;;;;;;;30.13;17.60;;;;;;;-141.97;83.65;47497.94;5032534;28;20192;-86
2023/09/08 04:26:45;;;;;;;29.83;16.97;;;;;;;-141.97;83.74;47797.78;5033816;28;20165;-86
2023/09/08 04:29:11;;;;;;;28.47;17.37;;;;;;;-141.97;84.31;47582.50;5032617;28;20170;-88
2023/09/08 04:31:36;;;;;;;30.70;16.97;;;;;;;-141.97;84.58;47761.25;5030477;28;20177;-86
2023/09/08 04:34:01;;;;;;;24.67;16.70;;;;;;;-141.97;84.90;47542.16;5031305;28;20173;-84
2023/09/08 04:36:27;;;;;;;25.80;16.43;;;;;;;-141.97;85.92;47538.28;5030963;28;20181;-85
2023/09/08 04:38:52;;;;;;;22.17;16.17;;;;;;;-141.97;86.47;47578.66;5031370;28;20174;-84
2023/09/08 04:41:17;;;;;;;22.10;16.33;;;;;;;-141.97;86.16;47645.94;5031216;28;20614;-85
2023/09/08 04:43:43;;;;;;;25.53;16.10;;;;;;;-141.97;86.17;47630.56;5031055;28;20228;-85
2023/09/08 04:46:08;;;;;;;25.93;17.20;;;;;;;-141.97;85.53;47676.69;5031346;28;20169;-85
2023/09/08 04:48:34;;;;;;;23.23;17.00;;;;;;;-141.97;84.62;47438.34;5029759;28;20181;-84
2023/09/08 04:50:59;;;;;;;22.37;16.40;;;;;;;-141.97;84.79;47642.09;5030994;28;20206;-85
2023/09/08 04:53:24;;;;;;;25.03;16.67;;;;;;;-141.97;85.68;47563.28;5031094;28;20169;-82
2023/09/08 04:55:50;;;;;;;24.80;17.03;;;;;;;-141.97;86.60;47667.06;5030740;28;20208;-82
2023/09/08 04:58:15;;;;;;;28.70;17.00;;;;;;;-141.97;86.08;47555.59;5029663;28;20170;-84
2023/09/08 05:00:41;;;;;;;26.03;16.07;;;;;;;-141.97;84.07;47670.91;5031018;28;20200;-83
2023/09/08 05:03:06;;;;;;;24.97;15.70;;;;;;;-141.97;83.73;47820.84;5021344;28;20240;-83
2023/09/08 05:05:32;;;;;;;24.37;16.03;;;;;;;-141.97;83.98;47640.16;5030589;28;20248;-82
2023/09/08 05:07:57;;;;;;;22.10;16.27;;;;;;;-141.97;83.29;47638.25;5030767;28;20173;-83
2023/09/08 05:10:23;;;;;;;24.47;15.40;;;;;;;-141.97;82.78;47638.25;5031161;28;20166;-83
2023/09/08 05:12:49;;;;;;;24.93;16.00;;;;;;;-141.97;83.51;47807.41;5030688;28;20194;-82
2023/09/08 05:15:16;;;;;;;20.80;14.80;;;;;;;-141.97;82.73;47745.88;5030701;28;20244;-82
2023/09/08 05:17:42;;;;;;;19.47;14.63;;;;;;;-141.97;82.27;47713.22;5030991;28;20252;-83
2023/09/08 05:20:08;;;;;;;21.77;15.27;;;;;;;-141.97;82.93;47461.41;5031070;28;20197;-83
2023/09/08 05:22:34;;;;;;;28.73;15.50;;;;;;;-141.97;83.36;47640.16;5031303;28;20241;-83
2023/09/08 05:24:59;;;;;;;24.73;15.37;;;;;;;-141.97;83.46;47453.72;5031363;28;20249;-86
2023/09/08 05:27:24;;;;;;;24.90;15.10;;;;;;;-141.97;81.54;47511.38;5031957;28;20173;-84
2023/09/08 05:29:50;;;;;;;25.37;15.47;;;;;;;-141.97;82.34;47595.97;5031120;28;20154;-85
2023/09/08 05:32:15;;;;;;;24.00;15.03;;;;;;;-141.97;82.61;47409.53;5030717;28;20543;-84
2023/09/08 05:34:40;;;;;;;20.33;14.40;;;;;;;-141.97;82.00;47649.78;5030751;28;20185;-84
2023/09/08 05:37:06;;;;;;;22.80;15.50;;;;;;;-141.97;81.79;47490.25;5030668;28;20162;-85
2023/09/08 05:39:31;;;;;;;22.30;15.37;;;;;;;-141.97;81.33;47624.78;5030561;28;20288;-85
2023/09/08 05:41:57;;;;;;;20.43;15.33;;;;;;;-141.97;80.49;47570.97;5030534;28;20194;-84
2023/09/08 05:44:22;;;;;;;23.37;16.13;;;;;;;-141.97;80.56;47597.88;5029040;28;20553;-84
2023/09/08 05:46:48;;;;;;;29.40;16.77;;;;;;;-141.97;80.24;47657.47;5030230;28;20185;-84
2023/09/08 05:49:14;;;;;;;25.13;16.27;;;;;;;-141.97;80.09;47551.75;5030483;28;20162;-85
2023/09/08 05:51:39;;;;;;;24.57;16.10;;;;;;;-141.97;80.42;47513.31;5029570;28;20498;-90
2023/09/08 05:54:05;;;;;;;30.43;15.83;;;;;;;-141.97;80.21;47751.66;5030294;28;20269;-88
2023/09/08 05:56:31;;;;;;;24.00;16.10;;;;;;;-141.97;79.61;47699.75;5033336;28;20174;-86
2023/09/08 05:58:58;;;;;;;24.30;16.67;;;;;;;-141.97;79.40;47544.06;5040264;28;20173;-86
2023/09/08 06:01:24;;;;;;;21.03;16.37;;;;;;;-141.97;80.04;47442.19;5033520;28;20201;-89
2023/09/08 06:03:49;;;;;;;23.50;16.30;;;;;;;-141.97;79.15;47803.56;5025865;28;20256;-86
2023/09/08 06:06:15;;;;;;;23.53;15.97;;;;;;;-141.97;78.05;47549.84;5031849;28;20635;-87
2023/09/08 06:08:40;;;;;;;24.43;14.63;;;;;;;-141.97;76.19;47469.09;5029349;28;20205;-91
2023/09/08 06:11:06;;;;;;;18.07;13.27;;;;;;;-141.97;74.05;47626.72;5032052;28;20181;-87
2023/09/08 06:13:31;;;;;;;20.60;13.20;;;;;;;-141.97;73.84;47818.94;5048828;28;20182;-87
2023/09/08 06:15:56;;;;;;;18.70;12.20;;;;;;;-141.97;73.03;47605.56;5034339;28;20165;-87
2023/09/08 06:18:22;;;;;;;19.47;12.40;;;;;;;-141.97;73.39;47517.16;5033773;28;20168;-87
2023/09/08 06:20:47;;;;;;;18.97;12.50;;;;;;;-141.97;73.36;47622.88;5033838;28;20590;-89
2023/09/08 06:23:13;;;;;;;20.97;12.50;;;;;;;-141.97;74.23;47605.56;5032692;28;20632;-89
2023/09/08 06:25:39;;;;;;;18.63;12.70;;;;;;;-141.97;74.30;47355.72;5032554;28;20166;-88
2023/09/08 06:28:05;;;;;;;19.33;12.23;;;;;;;-141.97;72.81;47517.16;5032558;28;20174;-88
2023/09/08 06:30:30;;;;;;;17.77;12.37;;;;;;;-141.97;72.71;47749.72;5048955;28;20178;-87
2023/09/08 06:32:56;;;;;;;16.90;12.03;;;;;;;-141.97;71.63;47465.25;5037992;28;20559;-87
2023/09/08 06:35:21;;;;;;;16.37;12.10;;;;;;;-141.97;71.89;47496.00;5052258;28;20642;-88
2023/09/08 06:37:46;;;;;;;15.93;11.37;;;;;;;-141.97;72.41;47480.63;5052066;28;20544;-88
2023/09/08 06:40:12;;;;;;;15.70;11.27;;;;;;;-141.97;70.83;47538.28;5053560;28;20204;-88
2023/09/08 06:42:37;;;;;;;18.43;11.00;;;;;;;-141.97;70.94;47797.78;5053523;28;20316;-88
2023/09/08 06:45:03;;;;;;;17.30;11.17;;;;;;;-141.97;70.41;47517.16;5052165;28;20181;-88
2023/09/08 06:47:29;;;;;;;14.67;10.90;;;;;;;-141.97;69.98;47449.88;5053765;28;20161;-88
2023/09/08 06:49:54;;;;;;;17.57;11.23;;;;;;;-141.97;69.91;47497.94;5053435;28;20223;-88
2023/09/08 06:52:19;;;;;;;16.53;11.43;;;;;;;-141.97;67.23;47561.38;5054003;28;20226;-88
2023/09/08 06:54:45;;;;;;;15.47;11.20;;;;;;;-141.97;65.58;47478.72;5041721;28;20205;-86
2023/09/08 06:57:12;;;;;;;14.00;10.53;;;;;;;-141.97;65.15;47444.13;5034562;28;20232;-87
2023/09/08 06:59:37;;;;;;;13.77;9.93;;;;;;;-141.97;64.00;47649.78;5031679;28;20357;-87
2023/09/08 07:02:04;;;;;;;13.60;10.20;;;;;;;-141.97;62.58;47603.66;5021691;28;20284;-88
2023/09/08 07:04:30;;;;;;;13.80;10.33;;;;;;;-141.97;62.17;47469.09;5031509;28;20174;-87
2023/09/08 07:06:55;;;;;;;14.47;10.57;;;;;;;-141.97;62.94;47544.06;5031874;28;20170;-88
2023/09/08 07:09:21;;;;;;;13.17;10.10;;;;;;;-141.97;62.96;47388.38;5032133;28;20535;-87
2023/09/08 07:11:46;;;;;;;13.80;10.13;;;;;;;-141.97;62.67;47588.28;5048757;28;20534;-87
2023/09/08 07:14:12;;;;;;;13.20;10.13;;;;;;;-141.97;64.43;47438.34;5033210;28;20173;-84
2023/09/08 07:16:37;;;;;;;11.37;10.03;;;;;;;-141.97;63.62;47611.34;5034796;28;20170;-90
2023/09/08 07:19:03;;;;;;;17.27;10.63;;;;;;;-141.97;62.93;47503.69;5032778;28;20174;-87
2023/09/08 07:21:28;;;;;;;15.73;9.53;;;;;;;-141.97;62.67;47430.66;5030910;28;21113;-88
2023/09/08 07:23:54;;;;;;;16.00;10.20;;;;;;;-141.97;62.75;47396.06;5041162;28;20635;-89
2023/09/08 07:26:19;;;;;;;13.27;9.87;;;;;;;-141.97;60.15;47826.63;5017654;28;20231;-89
2023/09/08 07:28:45;;;;;;;14.87;10.10;;;;;;;-141.97;60.71;47563.28;5029223;28;20186;-84
2023/09/08 07:31:11;;;;;;;15.17;10.10;;;;;;;-141.97;61.02;47603.66;5013669;28;20539;-86
2023/09/08 07:33:37;;;;;;;12.23;9.83;;;;;;;-141.97;61.33;47517.16;5012935;28;20171;-84
2023/09/08 07:36:07;;;;;;;12.33;9.80;;;;;;;-141.97;61.29;47422.97;5062790;28;20162;-86
2023/09/08 07:38:32;;;;;;;13.73;9.30;;;;;;;-141.97;60.55;47565.22;5048732;28;20526;-82
2023/09/08 07:41:00;;;;;;;13.30;8.97;;;;;;;-141.97;59.83;47384.53;5032862;28;20212;-83
2023/09/08 07:43:25;;;;;;;13.57;9.33;;;;;;;-141.97;59.24;47544.06;5032570;28;20682;-87
2023/09/08 07:45:51;;;;;;;13.50;8.67;;;;;;;-141.97;58.19;47578.66;5031341;28;20290;-87
2023/09/08 07:48:16;;;;;;;10.60;8.10;;;;;;;-141.97;54.71;47695.91;5033931;28;20511;-89
2023/09/08 07:50:42;;;;;;;11.32;7.70;;;;;;;-141.97;53.81;47315.34;5032729;28;20201;-87
2023/09/08 07:53:08;;;;;;;10.60;7.82;;;;;;;-141.97;51.94;47538.28;5032090;28;20587;-87
2023/09/08 07:55:33;;;;;;;11.50;7.75;;;;;;;-141.97;51.33;47497.94;5033311;28;20575;-83
2023/09/08 07:57:59;;;;;;;12.70;8.35;;;;;;;-141.97;50.12;47496.00;5032997;28;20172;-83
2023/09/08 08:00:24;;;;;;;12.45;8.15;;;;;;;-141.97;49.75;47344.19;5034392;28;20783;-87
2023/09/08 08:02:53;;;;;;;10.70;8.15;;;;;;;-141.97;50.43;47507.53;5023962;28;20290;-88
2023/09/08 08:05:18;;;;;;;12.73;8.32;;;;;;;-141.97;51.29;47595.97;5036991;28;20170;-86
2023/09/08 08:07:44;;;;;;;12.35;8.27;;;;;;;-141.97;49.50;47311.50;5038548;28;20176;-85
2023/09/08 08:10:10;;;;;;;11.88;8.45;;;;;;;-141.97;49.39;47463.34;5036991;28;20179;-86
2023/09/08 08:12:36;;;;;;;12.88;8.80;;;;;;;-141.97;48.71;47469.09;5038436;28;20166;-87
2023/09/08 08:15:02;;;;;;;12.85;7.85;;;;;;;-141.97;47.11;47465.25;5032614;28;20299;-87
2023/09/08 08:17:29;;;;;;;12.20;8.25;;;;;;;-141.97;47.57;47738.19;5030509;28;20175;-87
2023/09/08 08:19:55;;;;;;;12.02;8.43;;;;;;;-141.97;47.05;47515.22;5029918;28;20193;-87
2023/09/08 08:22:21;;;;;;;14.15;8.13;;;;;;;-141.97;47.08;47634.41;5029972;28;20178;-87
2023/09/08 08:24:46;;;;;;;11.93;7.93;;;;;;;-141.97;47.19;47398.00;5032028;28;20176;-88
2023/09/08 08:27:12;;;;;;;11.45;7.97;;;;;;;-141.97;46.93;47601.72;5030348;28;20260;-88
2023/09/08 08:29:38;;;;;;;9.75;8.35;;;;;;;-141.97;47.36;47380.69;5029988;28;20261;-88
2023/09/08 08:32:03;;;;;;;9.20;7.72;;;;;;;-141.97;46.39;47538.28;5031661;28;20599;-88
2023/09/08 08:34:29;;;;;;;13.30;8.05;;;;;;;-141.97;46.22;47334.56;5030198;28;20177;-87
2023/09/08 08:36:54;;;;;;;13.52;8.00;;;;;;;-141.97;46.70;47609.41;5030489;28;20182;-88
2023/09/08 08:39:20;;;;;;;11.50;7.80;;;;;;;-141.97;47.18;47411.44;5030577;28;20169;-90
2023/09/08 08:41:45;;;;;;;11.20;7.95;;;;;;;-141.97;47.05;47515.22;5031546;28;20194;-88
2023/09/08 08:44:14;;;;;;;10.85;8.07;;;;;;;-141.97;45.78;47484.47;5030653;28;20202;-87
2023/09/08 08:46:41;;;;;;;12.65;8.02;;;;;;;-141.97;46.02;47411.44;5031461;28;20260;-87
2023/09/08 08:49:06;;;;;;;10.80;7.63;;;;;;;-141.97;45.78;47307.66;5030857;28;20169;-90
2023/09/08 08:51:34;;;;;;;9.65;7.90;;;;;;;-141.97;45.73;47459.50;5030246;28;20241;-88
2023/09/08 08:54:04;;;;;;;11.45;7.85;;;;;;;-141.97;46.03;47580.59;5029672;28;20174;-90
2023/09/08 08:56:30;;;;;;;12.20;7.95;;;;;;;-141.97;47.00;47546.00;5029815;28;20177;-89
2023/09/08 08:58:57;;;;;;;10.98;7.13;;;;;;;-141.97;44.75;47403.75;5030960;28;20256;-88
2023/09/08 09:01:24;;;;;;;14.23;7.00;;;;;;;-141.97;42.51;47680.53;5031269;28;20704;-88
2023/09/08 09:03:51;;;;;;;14.40;6.80;;;;;;;-141.97;41.44;47626.72;5016059;28;20241;-88
2023/09/08 09:06:17;;;;;;;10.40;6.53;;;;;;;-141.97;40.01;47482.56;5029345;28;20603;-90
2023/09/08 09:08:44;;;;;;;13.68;6.53;;;;;;;-141.97;39.93;47436.44;5031074;28;20212;-88
2023/09/08 09:11:10;;;;;;;11.10;6.65;;;;;;;-141.97;38.95;47328.81;5037983;28;20247;-89
2023/09/08 09:13:36;;;;;;;10.02;6.30;;;;;;;-141.97;37.24;47303.81;5031014;28;20704;-90
2023/09/08 09:16:03;;;;;;;9.50;6.25;;;;;;;-141.97;37.89;47292.28;5030660;28;20315;-90
2023/09/08 09:18:31;;;;;;;9.40;6.15;;;;;;;-141.97;37.97;47740.13;5029762;28;20657;-90
2023/09/08 09:21:00;;;;;;;7.72;6.05;;;;;;;-141.97;38.84;47303.81;5029040;28;20220;-90
2023/09/08 09:23:31;;;;;;;8.05;5.82;;;;;;;-141.97;39.28;47326.88;5029517;28;20172;-89
2023/09/08 09:25:58;;;;;;;7.47;5.85;;;;;;;-141.97;38.53;47351.88;5031002;28;20189;-86
2023/09/08 09:28:24;;;;;;;9.05;6.10;;;;;;;-141.97;38.61;47346.09;5032369;28;20189;-88
2023/09/08 09:32:45;;;;;;;10.25;6.30;;;;;;;-141.97;38.39;47542.16;5029325;28;20158;-91
2023/09/08 09:34:53;;;;;;;9.50;5.60;;;;;;;-141.97;36.99;47547.91;5008884;28;20215;-91
2023/09/08 09:37:21;;;;;;;8.30;5.38;;;;;;;-141.97;37.50;47123.16;5029476;28;20180;-88
2023/09/08 09:39:54;;;;;;;8.10;5.13;;;;;;;-141.97;37.08;47449.88;5029148;28;20194;-88
2023/09/08 09:42:20;;;;;;;8.10;5.68;;;;;;;-141.97;36.40;47413.38;5029605;28;20228;-88
2023/09/08 09:44:51;;;;;;;8.93;5.30;;;;;;;-141.97;36.95;47211.56;5029522;28;20568;-88
2023/09/08 09:47:26;;;;;;;8.38;5.70;;;;;;;-141.97;35.80;47317.28;5032880;28;20214;-90
2023/09/08 09:49:52;;;;;;;7.00;5.50;;;;;;;-141.97;36.03;47315.34;5034017;28;20172;-88
2023/09/08 09:52:22;;;;;;;11.07;6.10;;;;;;;-141.97;36.11;47459.50;5035033;28;20173;-89
2023/09/08 09:54:50;;;;;;;6.53;5.82;;;;;;;-141.97;36.21;47192.34;5034933;28;20179;-89
2023/09/08 09:57:16;;;;;;;8.32;5.30;;;;;;;-141.97;36.09;47469.09;5033036;28;20558;-84
2023/09/08 09:59:42;;;;;;;6.68;5.35;;;;;;;-141.97;36.86;47499.84;5034279;28;20172;-84
2023/09/08 10:02:14;;;;;;;7.18;5.75;;;;;;;-141.97;37.22;47403.75;5024806;28;20252;-86
2023/09/08 10:04:41;;;;;;;5.68;5.18;;;;;;;-141.97;35.64;47459.50;5034457;28;20630;-85
2023/09/08 10:07:10;;;;;;;7.63;5.90;;;;;;;-141.97;36.23;47278.84;5033993;28;20664;-87
2023/09/08 10:09:36;;;;;;;7.30;5.45;;;;;;;-141.97;35.80;47442.19;5034544;28;20161;-86
2023/09/08 10:12:06;;;;;;;6.45;5.53;;;;;;;-141.97;35.80;47369.16;5034644;28;20169;-85
2023/09/08 10:14:41;;;;;;;6.93;5.30;;;;;;;-141.97;36.64;47471.03;5038594;28;20185;-86
2023/09/08 10:17:11;;;;;;;7.38;5.75;;;;;;;-141.97;36.64;47476.78;5041827;28;20195;-87
2023/09/08 10:19:48;;;;;;;6.20;5.35;;;;;;;-141.97;35.80;47622.88;5038061;28;20260;-88
2023/09/08 10:22:19;;;;;;;8.00;5.43;;;;;;;-141.97;36.32;47417.22;5040707;28;20211;-86
2023/09/08 10:24:46;;;;;;;8.70;5.53;;;;;;;-141.97;36.33;47257.69;5040897;28;20168;-87
2023/09/08 10:27:12;;;;;;;8.95;5.57;;;;;;;-141.97;35.83;47459.50;5034926;28;20184;-87
2023/09/08 10:29:38;;;;;;;12.23;5.53;;;;;;;-141.97;36.30;47294.22;5032824;28;20680;-87
2023/09/08 10:32:05;;;;;;;6.93;5.30;;;;;;;-141.97;35.80;47680.53;5034129;28;20172;-86
2023/09/08 10:34:33;;;;;;;7.30;5.50;;;;;;;-141.97;35.52;47342.25;5033753;28;20540;-87
2023/09/08 10:36:59;;;;;;;7.28;5.40;;;;;;;-141.97;35.92;47622.88;5034119;28;20173;-84
2023/09/08 10:39:45;;;;;;;7.07;5.20;;;;;;;-141.97;35.52;47743.97;5031583;28;20695;-86
2023/09/08 10:42:19;;;;;;;6.75;5.32;;;;;;;-141.97;35.43;47430.66;5033452;28;20229;-85
2023/09/08 10:44:58;;;;;;;6.45;5.43;;;;;;;-141.97;35.11;47438.34;5033403;28;20270;-84
2023/09/08 10:47:26;;;;;;;6.15;5.55;;;;;;;-141.97;35.10;47371.09;5033358;28;20187;-85
2023/09/08 10:49:53;;;;;;;8.18;5.80;;;;;;;-141.97;35.17;47672.84;5032335;28;20319;-85
2023/09/08 10:52:21;;;;;;;7.38;5.50;;;;;;;-141.97;34.81;47447.97;5032112;28;20169;-86
2023/09/08 10:54:55;;;;;;;7.78;5.22;;;;;;;-141.97;34.45;47365.31;5033360;28;20208;-90
2023/09/08 10:57:22;;;;;;;7.40;5.50;;;;;;;-141.97;34.29;47432.59;5031046;28;20185;-88
2023/09/08 10:59:55;;;;;;;6.88;5.22;;;;;;;-141.97;34.54;47407.59;5032111;28;20289;-88
2023/09/08 11:02:38;;;;;;;6.20;5.13;;;;;;;-141.97;34.17;47451.81;5043182;28;20181;-89